• Join FlightAware (Why Join?)
  • Login
  • US Flag 
08:06PM EDT


 

Airport Tracker/Info


-or-


 

Live Flight TrackerFlight Track Log ✈ TAM3609 ✈ 29-Jul-2013 ✈ SBEG / MAO - SBBR / BSB

Flight Track Log - Related Links

Times and Time Zones

All times are in EDT time to prevent confusion due to time zone crossing. See the TAM3609 flight status page for this flight to view local times or setup timezone preferences in your user account.

Time Position Orientation Groundspeed Altitude Reporting Facility
EDT Latitude Longitude Course Direction KTS MPH feet Rate Location/Type
02:48PM -3.0390 -60.0340 90° East 162 186 800  Level FlightAware
02:48PM -3.0390 -60.0140 90° East 172 198 1,500 1,200 Climbing FlightAware
02:48PM -3.0390 -59.9980 90° East 196 226 1,700 540 Climbing FlightAware
02:49PM -3.0390 -59.9860 90° East 210 242 1,800 960 Climbing FlightAware
02:49PM -3.0390 -59.9680 90° East 232 267 2,200 540 Climbing FlightAware
02:49PM -3.0390 -59.9440 90° East 232 267 2,200 1,980 Level FlightAware
02:52PM -3.2499 -59.7541 138° Southeast  Level Estimated
02:53PM -3.3437 -59.6697 138° Southeast  Level Estimated
02:53PM -3.2750 -59.8250 138° Southeast 317 365 10,600  Level FlightAware
02:54PM -3.3310 -59.7800 141° Southeast 348 400 11,600 1,680 Climbing FlightAware
02:54PM -3.3770 -59.7420 140° Southeast 358 412 12,700 1,980 Climbing FlightAware
02:55PM -3.4190 -59.7080 141° Southeast 361 415 13,900 1,800 Climbing FlightAware
02:55PM -3.4660 -59.6690 140° Southeast 371 427 14,800 1,740 Climbing FlightAware
02:56PM -3.5090 -59.6340 141° Southeast 371 427 15,900 1,740 Climbing FlightAware
02:56PM -3.5490 -59.6010 141° Southeast 377 434 16,700 1,560 Climbing FlightAware
02:57PM -3.6070 -59.5540 141° Southeast 382 440 17,800 1,080 Climbing FlightAware
02:58PM -3.6560 -59.5130 140° Southeast 382 440 18,200 300 Climbing FlightAware
02:58PM -3.6980 -59.4780 140° Southeast 382 440 18,200  Level FlightAware
02:59PM -3.7390 -59.4430 140° Southeast 382 440 18,200  Level FlightAware
03:00PM -3.7890 -59.4020 141° Southeast 382 440 18,200  Level FlightAware
03:00PM -3.8300 -59.3670 140° Southeast 382 440 18,200  Level FlightAware
03:01PM -3.8730 -59.3310 140° Southeast 382 440 18,200 120 Level FlightAware
03:04PM -4.1118 -59.1128 138° Southeast  Level Estimated
03:05PM -4.2037 -59.0289 138° Southeast  Level Estimated
03:06PM -4.2955 -58.9449 138° Southeast  Level Estimated
03:07PM -4.3873 -58.8609 138° Southeast  Level Estimated
03:08PM -4.4791 -58.7769 138° Southeast  Level Estimated
03:09PM -4.5709 -58.6929 138° Southeast  Level Estimated
03:10PM -4.6627 -58.6088 138° Southeast  Level Estimated
03:11PM -4.7545 -58.5248 138° Southeast  Level Estimated
03:12PM -4.8463 -58.4407 138° Southeast  Level Estimated
03:13PM -4.9380 -58.3565 138° Southeast  Level Estimated
03:14PM -5.0298 -58.2724 138° Southeast  Level Estimated
03:15PM -5.1215 -58.1883 138° Southeast  Level Estimated
03:16PM -5.2132 -58.1041 138° Southeast  Level Estimated
03:17PM -5.3050 -58.0199 138° Southeast  Level Estimated
03:18PM -5.3967 -57.9356 138° Southeast  Level Estimated
03:19PM -5.4884 -57.8513 138° Southeast  Level Estimated
03:20PM -5.5800 -57.7671 138° Southeast  Level Estimated
03:21PM -5.6717 -57.6828 138° Southeast  Level Estimated
03:22PM -5.7634 -57.5984 138° Southeast  Level Estimated
03:23PM -5.8550 -57.5140 138° Southeast  Level Estimated
03:24PM -5.9467 -57.4296 138° Southeast  Level Estimated
03:25PM -6.0383 -57.3452 138° Southeast  Level Estimated
03:26PM -6.1299 -57.2608 137° Southeast  Level Estimated
03:27PM -6.2215 -57.1763 137° Southeast  Level Estimated
03:28PM -6.3130 -57.0918 137° Southeast  Level Estimated
03:29PM -6.4046 -57.0072 137° Southeast  Level Estimated
03:30PM -6.4962 -56.9227 137° Southeast  Level Estimated
03:31PM -6.5877 -56.8381 137° Southeast  Level Estimated
03:32PM -6.6792 -56.7534 137° Southeast  Level Estimated
03:33PM -6.7708 -56.6688 137° Southeast  Level Estimated
03:34PM -6.8622 -56.5841 137° Southeast  Level Estimated
03:35PM -6.9537 -56.4993 137° Southeast  Level Estimated
03:36PM -7.0452 -56.4146 137° Southeast  Level Estimated
03:37PM -7.1367 -56.3298 137° Southeast  Level Estimated
03:38PM -7.2281 -56.2449 137° Southeast  Level Estimated
03:39PM -7.3195 -56.1601 137° Southeast  Level Estimated
03:40PM -7.4109 -56.0752 137° Southeast  Level Estimated
03:41PM -7.5023 -55.9902 137° Southeast  Level Estimated
03:42PM -7.5937 -55.9053 137° Southeast  Level Estimated
03:43PM -7.6850 -55.8203 137° Southeast  Level Estimated
03:44PM -7.7764 -55.7352 137° Southeast  Level Estimated
03:45PM -7.8677 -55.6501 137° Southeast  Level Estimated
03:46PM -7.9590 -55.5650 137° Southeast  Level Estimated
03:47PM -8.0503 -55.4799 137° Southeast  Level Estimated
03:48PM -8.1415 -55.3947 137° Southeast  Level Estimated
03:49PM -8.2328 -55.3094 137° Southeast  Level Estimated
03:50PM -8.3240 -55.2242 137° Southeast  Level Estimated
03:51PM -8.4152 -55.1389 137° Southeast  Level Estimated
03:52PM -8.5064 -55.0535 137° Southeast  Level Estimated
03:53PM -8.5976 -54.9681 137° Southeast  Level Estimated
03:54PM -8.6888 -54.8827 137° Southeast  Level Estimated
03:55PM -8.7799 -54.7972 137° Southeast  Level Estimated
03:56PM -8.8710 -54.7117 137° Southeast  Level Estimated
03:57PM -8.9621 -54.6261 137° Southeast  Level Estimated
03:58PM -9.0532 -54.5405 137° Southeast  Level Estimated
03:59PM -9.1443 -54.4549 137° Southeast  Level Estimated
04:00PM -9.2353 -54.3692 137° Southeast  Level Estimated
04:01PM -9.3263 -54.2835 137° Southeast  Level Estimated
04:02PM -9.4173 -54.1977 137° Southeast  Level Estimated
04:03PM -9.5083 -54.1119 137° Southeast  Level Estimated
04:04PM -9.5993 -54.0260 137° Southeast  Level Estimated
04:05PM -9.6902 -53.9401 137° Southeast  Level Estimated
04:06PM -9.7811 -53.8541 137° Southeast  Level Estimated
04:07PM -9.8720 -53.7681 137° Southeast  Level Estimated
04:08PM -9.9629 -53.6820 137° Southeast  Level Estimated
04:09PM -10.0538 -53.5959 137° Southeast  Level Estimated
04:10PM -10.1446 -53.5098 137° Southeast  Level Estimated
04:11PM -10.2354 -53.4236 137° Southeast  Level Estimated
04:12PM -10.3262 -53.3373 137° Southeast  Level Estimated
04:13PM -10.4169 -53.2510 137° Southeast  Level Estimated
04:14PM -10.5077 -53.1647 137° Southeast  Level Estimated
04:15PM -10.5984 -53.0783 137° Southeast  Level Estimated
04:16PM -10.6891 -52.9918 137° Southeast  Level Estimated
04:17PM -10.7797 -52.9053 137° Southeast  Level Estimated
04:18PM -10.8606 -52.8281 137° Southeast  Level Estimated
04:19PM -10.9415 -52.7508 137° Southeast  Level Estimated
04:20PM -11.0224 -52.6735 137° Southeast  Level Estimated
04:21PM -11.1032 -52.5961 137° Southeast  Level Estimated
04:22PM -11.1840 -52.5187 137° Southeast  Level Estimated
04:23PM -11.2648 -52.4412 137° Southeast  Level Estimated
04:24PM -11.3456 -52.3637 137° Southeast  Level Estimated
04:25PM -11.4263 -52.2862 137° Southeast  Level Estimated
04:26PM -11.5070 -52.2086 137° Southeast  Level Estimated
04:27PM -11.5878 -52.1310 137° Southeast  Level Estimated
04:28PM -11.6684 -52.0533 137° Southeast  Level Estimated
04:29PM -11.7491 -51.9756 137° Southeast  Level Estimated
04:30PM -11.8298 -51.8978 137° Southeast  Level Estimated
04:31PM -11.9104 -51.8200 137° Southeast  Level Estimated
04:32PM -11.9910 -51.7421 137° Southeast  Level Estimated
04:33PM -12.0716 -51.6642 137° Southeast  Level Estimated
04:34PM -12.1522 -51.5863 137° Southeast  Level Estimated
04:35PM -12.2327 -51.5083 137° Southeast  Level Estimated
04:36PM -12.3132 -51.4302 137° Southeast  Level Estimated
04:37PM -12.3937 -51.3521 137° Southeast  Level Estimated
04:38PM -12.4742 -51.2740 137° Southeast  Level Estimated
04:39PM -12.5546 -51.1958 137° Southeast  Level Estimated
04:40PM -12.6351 -51.1176 136° Southeast  Level Estimated
04:41PM -12.7155 -51.0393 136° Southeast  Level Estimated
04:42PM -12.7959 -50.9609 136° Southeast  Level Estimated
04:43PM -12.8762 -50.8826 136° Southeast  Level Estimated
04:44PM -12.9566 -50.8041 136° Southeast  Level Estimated
04:45PM -13.0369 -50.7256 136° Southeast  Level Estimated
04:46PM -13.1172 -50.6471 136° Southeast  Level Estimated
04:47PM -13.1974 -50.5685 136° Southeast  Level Estimated
04:48PM -13.2777 -50.4899 136° Southeast  Level Estimated
04:49PM -13.3579 -50.4112 136° Southeast  Level Estimated
04:50PM -13.4381 -50.3324 136° Southeast  Level Estimated
04:51PM -13.5183 -50.2536 136° Southeast  Level Estimated
04:52PM -13.5984 -50.1748 136° Southeast  Level Estimated
04:53PM -13.6785 -50.0959 136° Southeast  Level Estimated
04:54PM -13.7586 -50.0169 136° Southeast  Level Estimated
04:55PM -13.8387 -49.9379 136° Southeast  Level Estimated
04:56PM -13.9187 -49.8588 136° Southeast  Level Estimated
04:57PM -13.9988 -49.7797 136° Southeast  Level Estimated
04:58PM -14.0788 -49.7005 136° Southeast  Level Estimated
04:59PM -14.1587 -49.6213 136° Southeast  Level Estimated
05:00PM -14.2387 -49.5420 136° Southeast  Level Estimated
05:01PM -14.3186 -49.4626 136° Southeast  Level Estimated
05:02PM -14.3985 -49.3832 136° Southeast  Level Estimated
05:03PM -14.4783 -49.3038 136° Southeast  Level Estimated
05:04PM -14.5582 -49.2243 136° Southeast  Level Estimated
05:04PM -14.4940 -49.5700 136° Southeast 438 504 35,000  Level FlightAware
05:04PM -14.5910 -49.4790 138° Southeast 440 506 35,000  Level FlightAware
05:05PM -14.6380 -49.1447 136° Southeast  Level Estimated
05:05PM -14.6490 -49.4250 138° Southeast 440 506 35,000  Level FlightAware
05:06PM -14.7040 -49.3720 137° Southeast 447 514 32,500 -3,240 Descending FlightAware
05:06PM -14.7520 -49.3270 138° Southeast 443 510 31,400 -2,160 Descending FlightAware
05:07PM -14.8270 -49.2560 138° Southeast 436 502 29,500 -1,680 Descending FlightAware
05:08PM -14.8960 -49.1920 138° Southeast 432 497 28,800 -2,220 Descending FlightAware
05:08PM -14.9440 -49.1460 137° Southeast 414 476 26,700 -3,000 Descending FlightAware
05:09PM -14.9980 -49.0940 137° Southeast 409 471 25,300 -2,100 Descending FlightAware
05:10PM -15.0460 -49.0490 138° Southeast 402 463 24,200 -1,200 Descending FlightAware
05:10PM -15.0920 -49.0060 138° Southeast 375 432 24,000 -420 Descending FlightAware
05:11PM -15.1300 -48.9700 138° Southeast 363 418 23,800 -1,320 Descending FlightAware
05:11PM -15.1750 -48.9280 138° Southeast 369 425 22,500 -1,920 Descending FlightAware
05:12PM -15.2250 -48.8800 137° Southeast 357 411 21,400 -2,460 Descending FlightAware
05:13PM -15.2670 -48.8400 137° Southeast 370 426 19,700 -2,940 Descending FlightAware
05:13PM -15.3130 -48.7970 138° Southeast 380 437 18,000 -2,520 Descending FlightAware
05:14PM -15.3520 -48.7500 131° Southeast 369 425 16,800 -2,100 Descending FlightAware
05:14PM -15.3880 -48.7000 127° Southeast 362 417 15,600 -2,280 Descending FlightAware
05:15PM -15.4210 -48.6530 126° Southeast 362 417 14,200 -2,580 Descending FlightAware
05:15PM -15.4580 -48.6010 126° Southeast 365 420 12,600 -2,280 Descending FlightAware
05:16PM -15.4920 -48.5530 126° Southeast 352 405 11,600 -1,800 Descending FlightAware
05:17PM -15.5200 -48.5130 126° Southeast 343 395 10,700 -1,320 Descending FlightAware
05:17PM -15.5560 -48.4620 126° Southeast 316 364 10,100 -900 Descending FlightAware
05:17PM -15.5690 -48.4440 127° Southeast 306 352 9,900 -900 Descending FlightAware
05:18PM -15.5850 -48.4210 126° Southeast 294 338 9,600 -1,200 Descending FlightAware
05:18PM -15.6020 -48.3980 128° Southeast 293 337 9,100 -1,500 Descending FlightAware
05:19PM -15.6240 -48.3730 132° Southeast 292 336 8,500 -1,200 Descending FlightAware
05:19PM -15.6390 -48.3580 136° Southeast 291 335 8,300 -840 Descending FlightAware
05:19PM -15.6540 -48.3430 136° Southeast 286 329 8,100 -900 Descending FlightAware
05:19PM -15.6730 -48.3250 138° Southeast 284 327 7,800 -960 Descending FlightAware
05:20PM -15.6970 -48.3010 136° Southeast 281 323 7,400 -900 Descending FlightAware
05:20PM -15.7110 -48.2880 138° Southeast 282 325 7,200 -1,080 Descending FlightAware
05:20PM -15.7300 -48.2690 136° Southeast 278 320 6,800 -900 Descending FlightAware
05:21PM -15.7480 -48.2510 136° Southeast 275 316 6,600 -600 Descending FlightAware
05:21PM -15.7670 -48.2330 138° Southeast 277 319 6,400 -480 Descending FlightAware
05:21PM -15.7860 -48.2150 138° Southeast 277 319 6,300 -480 Descending FlightAware
05:22PM -15.8050 -48.1970 138° Southeast 273 314 6,100 -360 Descending FlightAware
05:22PM -15.8320 -48.1700 136° Southeast 271 312 6,000  Descending FlightAware
05:23PM -15.8500 -48.1530 138° Southeast 251 289 6,100 120 Climbing FlightAware
05:23PM -15.8700 -48.1340 138° Southeast 236 272 6,100 -180 Level FlightAware
05:23PM -15.8850 -48.1170 133° Southeast 227 261 6,000  Descending FlightAware
05:23PM -15.8880 -48.1120 122° Southeast 221 254 6,100  Climbing FlightAware
05:24PM -15.8900 -48.1030 103° East 212 244 6,000 -780 Descending FlightAware
05:24PM -15.8890 -48.0730 88° East 201 231 5,600 -900 Descending FlightAware
05:24PM -15.8880 -48.0500 87° East 188 216 5,200 -960 Descending FlightAware
05:25PM -15.8870 -48.0330 87° East 170 196 4,900 -900 Descending FlightAware
05:25PM -15.8860 -48.0170 86° East 157 181 4,600 -780 Descending FlightAware
05:25PM -15.8850 -48.0020 86° East 151 174 4,400 -720 Descending FlightAware
05:26PM -15.8840 -47.9850 87° East 148 170 4,100 -900 Descending FlightAware
05:26PM -15.8830 -47.9770 83° East 149 171 3,900 -840 Descending FlightAware
05:26PM -15.8820 -47.9630 86° East 148 170 3,700 -720 Descending FlightAware
05:27PM -15.8810 -47.9420 87° East 148 170 3,300 -420 Descending FlightAware
05:28PM -15.8790 -47.9160 85° East 144 166 3,200 -60 Descending FlightAware
05:30PM -15.8730 -47.9160 360° North 144 166 3,200  Level FlightAware
05:30PM -15.8720 -47.9000 86° East 144 166 3,200  Level FlightAware